»·PEaware :: WAT542 KSJC-KSEA

WAT542 :: KSJC-KSEA

FLIGHT INFORMATION

Flight Status: Arrived
Operator:
Walker Air Transport
More flights by this operator :: More flights under this callsign
Pilot: Andrew C. (28419)
Aircraft: BOEING 727-200
(B722)
More flights by this aircraft type
Origin: KSJC Mineta San Jose Intl
United States
Destination: KSEA Seattle-Tacoma Intl
United States
More flights between these airports :: More routes between these airports
Route: LOUPE5 BMRNG OAK J1 BTG OLM2
File this flight plan on PilotEdge
Remarks: RMK / SIMBRIEF
Altitude:
(Current/Filed)
34,000ft
Speed:
(Current/Filed)
472kts
Departed: 12-Sep-21 02:47 PM
Arrived: 12-Sep-21 04:24 PM
Distance/Time
Traveled:
605nm/1:37
Distance/Time
To Go:
Arrived

Flight Plot

Page will automatically refresh every two minutes.

Flight plan parsing failed; only flown route is shown


Map Options




Map Legend


Flown Route
Filed Route
Departure Airport
Arrival Airport
Navaid (VOR, NDB)
Fix

Horizontal Profiles

Position Reports

Time Latitude Longitude Heading Altitude Ground
Speed
12-Sep-21 14:21 37.369417 -121.930488 45 50ft 0kts
12-Sep-21 14:22 37.369417 -121.930488 45 50ft 0kts
12-Sep-21 14:23 37.369417 -121.930488 45 50ft 0kts
12-Sep-21 14:24 37.369417 -121.930488 45 50ft 0kts
12-Sep-21 14:25 37.369417 -121.930488 45 50ft 0kts
12-Sep-21 14:26 37.369417 -121.930488 45 50ft 0kts
12-Sep-21 14:27 37.369417 -121.930488 45 50ft 0kts
12-Sep-21 14:27 37.369417 -121.930488 45 50ft 0kts
12-Sep-21 14:29 37.369417 -121.930488 45 50ft 0kts
12-Sep-21 14:29 37.369417 -121.930488 45 50ft 0kts
12-Sep-21 14:31 37.369417 -121.930488 45 50ft 0kts
12-Sep-21 14:31 37.369417 -121.930488 45 50ft 0kts
12-Sep-21 14:32 37.369417 -121.930488 45 50ft 0kts
12-Sep-21 14:34 37.369416 -121.930489 45 50ft 0kts
12-Sep-21 14:35 37.369416 -121.930489 45 50ft 0kts
12-Sep-21 14:36 37.369416 -121.930489 45 50ft 0kts
12-Sep-21 14:36 37.369416 -121.930489 45 50ft 0kts
12-Sep-21 14:37 37.369416 -121.930489 45 50ft 0kts
12-Sep-21 14:38 37.369127 -121.930886 75 50ft 2kts
12-Sep-21 14:39 37.369242 -121.931247 139 50ft 0kts
12-Sep-21 14:40 37.369242 -121.931247 139 50ft 0kts
12-Sep-21 14:41 37.369126 -121.931116 137 50ft 6kts
12-Sep-21 14:42 37.365733 -121.927382 138 55ft 18kts
12-Sep-21 14:43 37.362335 -121.923669 139 61ft 14kts
12-Sep-21 14:44 37.359159 -121.920175 139 65ft 17kts
12-Sep-21 14:45 37.355089 -121.915709 138 69ft 19kts
12-Sep-21 14:46 37.353452 -121.916602 318 70ft 41kts
12-Sep-21 14:47 37.381515 -121.946989 319 677ft 172kts
12-Sep-21 14:48 37.416967 -121.922789 93 1752ft 231kts
12-Sep-21 14:49 37.404561 -121.841529 107 3224ft 239kts
12-Sep-21 14:50 37.355470 -121.799991 188 4193ft 251kts
12-Sep-21 14:51 37.284665 -121.819269 198 4885ft 268kts
12-Sep-21 14:52 37.274172 -121.900265 315 6791ft 314kts
12-Sep-21 14:53 37.347367 -121.951165 327 10896ft 295kts
12-Sep-21 14:54 37.419396 -122.001537 329 13551ft 315kts
12-Sep-21 14:55 37.501622 -122.058920 327 15526ft 352kts
12-Sep-21 14:56 37.587519 -122.122009 325 18118ft 361kts
12-Sep-21 14:57 37.677409 -122.188175 325 19769ft 396kts
12-Sep-21 14:58 37.786495 -122.223978 0 21884ft 434kts
12-Sep-21 14:59 37.907725 -122.223802 353 23921ft 444kts
12-Sep-21 15:00 38.032538 -122.228258 351 25822ft 455kts
12-Sep-21 15:01 38.160434 -122.234646 350 27480ft 466kts
12-Sep-21 15:02 38.290885 -122.240539 350 28894ft 477kts
12-Sep-21 15:03 38.424422 -122.243298 351 30216ft 487kts
12-Sep-21 15:04 38.561408 -122.242178 353 31394ft 497kts
12-Sep-21 15:05 38.698520 -122.237884 353 33477ft 480kts
12-Sep-21 15:06 38.832814 -122.232592 352 34002ft 492kts
12-Sep-21 15:07 38.972138 -122.231036 351 33990ft 511kts
12-Sep-21 15:08 39.116113 -122.233830 350 33982ft 526kts
12-Sep-21 15:09 39.263394 -122.237585 350 33983ft 534kts
12-Sep-21 15:10 39.410804 -122.238020 351 33980ft 530kts
12-Sep-21 15:11 39.559200 -122.236153 351 33980ft 535kts
12-Sep-21 15:12 39.707786 -122.235361 350 33960ft 533kts
12-Sep-21 15:13 39.855324 -122.235947 350 33963ft 532kts
12-Sep-21 15:14 40.003189 -122.236044 350 33963ft 533kts
12-Sep-21 15:15 40.147986 -122.245509 340 33969ft 515kts
12-Sep-21 15:16 40.287896 -122.281283 336 33980ft 510kts
12-Sep-21 15:17 40.423959 -122.328294 333 33989ft 506kts
12-Sep-21 15:18 40.558571 -122.381664 332 33999ft 506kts
12-Sep-21 15:19 40.694145 -122.432863 335 33985ft 510kts
12-Sep-21 15:20 40.832517 -122.473685 339 34138ft 516kts
12-Sep-21 15:21 40.975070 -122.502638 342 34118ft 523kts
12-Sep-21 15:22 41.119251 -122.525659 342 34117ft 524kts
12-Sep-21 15:23 41.263034 -122.553481 339 34119ft 519kts
12-Sep-21 15:24 41.402505 -122.593421 335 34098ft 513kts
12-Sep-21 15:25 41.539163 -122.642959 333 34090ft 510kts
12-Sep-21 15:26 41.676572 -122.692294 334 34092ft 515kts
12-Sep-21 15:27 41.817420 -122.731985 338 34091ft 521kts
12-Sep-21 15:28 41.960199 -122.765173 338 34087ft 521kts
12-Sep-21 15:29 42.100180 -122.803255 337 34061ft 515kts
12-Sep-21 15:30 42.239712 -122.844242 337 34063ft 513kts
12-Sep-21 15:31 42.379147 -122.884208 338 34063ft 512kts
12-Sep-21 15:32 42.519905 -122.910619 2 34067ft 541kts
12-Sep-21 15:33 42.666145 -122.893531 356 34098ft 530kts
12-Sep-21 15:34 42.813315 -122.880264 355 34113ft 530kts
12-Sep-21 15:35 42.960647 -122.868483 356 34110ft 532kts
12-Sep-21 15:36 43.106837 -122.852218 358 34122ft 534kts
12-Sep-21 15:37 43.254099 -122.831748 359 34150ft 531kts
12-Sep-21 15:38 43.400593 -122.812132 358 34146ft 529kts
12-Sep-21 15:39 43.547023 -122.795697 357 34145ft 526kts
12-Sep-21 15:40 43.692394 -122.783667 357 34147ft 524kts
12-Sep-21 15:41 43.837352 -122.775072 356 34155ft 522kts
12-Sep-21 15:42 43.982610 -122.767022 356 34155ft 522kts
12-Sep-21 15:43 44.125008 -122.757969 358 34154ft 517kts
12-Sep-21 15:44 44.268087 -122.743824 0 34155ft 516kts
12-Sep-21 15:45 44.410872 -122.724342 1 34155ft 516kts
12-Sep-21 15:46 44.553380 -122.704298 0 34155ft 514kts
12-Sep-21 15:47 44.695213 -122.689031 359 34155ft 512kts
12-Sep-21 15:48 44.830805 -122.679467 358 34155ft 510kts
12-Sep-21 15:49 44.972303 -122.670388 358 34155ft 508kts
12-Sep-21 15:50 45.111606 -122.657727 0 34173ft 507kts
12-Sep-21 15:51 45.251746 -122.641751 0 34173ft 506kts
12-Sep-21 15:52 45.391636 -122.626834 359 34173ft 504kts
12-Sep-21 15:53 45.531829 -122.613686 359 34178ft 503kts
12-Sep-21 15:54 45.670861 -122.600497 359 34183ft 501kts
12-Sep-21 15:55 45.809002 -122.588277 0 34169ft 489kts
12-Sep-21 15:56 45.941206 -122.579984 350 33168ft 466kts
12-Sep-21 15:57 46.062044 -122.633888 332 31618ft 448kts
12-Sep-21 15:58 46.172850 -122.710697 334 29794ft 434kts
12-Sep-21 15:59 46.287144 -122.759763 347 27796ft 427kts
12-Sep-21 16:00 46.405402 -122.771487 355 25948ft 423kts
12-Sep-21 16:01 46.521259 -122.779025 350 24146ft 410kts
12-Sep-21 16:02 46.631703 -122.807863 343 22348ft 399kts
12-Sep-21 16:03 46.738843 -122.843075 345 20554ft 393kts
12-Sep-21 16:04 46.845915 -122.870163 347 18758ft 389kts
12-Sep-21 16:05 46.950125 -122.858252 23 16963ft 391kts
12-Sep-21 16:06 47.047150 -122.789831 18 14876ft 385kts
12-Sep-21 16:07 47.131931 -122.698472 39 13100ft 375kts
12-Sep-21 16:08 47.203896 -122.603819 38 12993ft 318kts
12-Sep-21 16:09 47.265108 -122.523969 37 12922ft 268kts
12-Sep-21 16:10 47.319197 -122.454559 37 10845ft 253kts
12-Sep-21 16:11 47.382572 -122.433803 356 7988ft 236kts
12-Sep-21 16:12 47.446611 -122.437465 355 6060ft 217kts
12-Sep-21 16:13 47.505140 -122.441058 355 5628ft 214kts
12-Sep-21 16:14 47.559092 -122.444240 355 5004ft 196kts
12-Sep-21 16:15 47.619925 -122.445347 16 5008ft 238kts
12-Sep-21 16:16 47.673480 -122.394143 33 3914ft 220kts
12-Sep-21 16:17 47.680397 -122.329494 152 2944ft 170kts
12-Sep-21 16:18 47.636813 -122.311953 170 2899ft 168kts
12-Sep-21 16:19 47.586644 -122.310130 181 3243ft 200kts
12-Sep-21 16:20 47.530644 -122.310952 181 2052ft 167kts
12-Sep-21 16:21 47.491704 -122.310972 178 1095ft 136kts
12-Sep-21 16:22 47.454555 -122.311078 179 482ft 108kts
12-Sep-21 16:23 47.443473 -122.306907 94 481ft 8kts
12-Sep-21 16:24 47.446530 -122.306323 1 481ft 15kts
12-Sep-21 16:25 47.450123 -122.304519 84 481ft 16kts
12-Sep-21 16:26 47.448033 -122.300126 237 481ft 9kts
12-Sep-21 16:27 47.447989 -122.300638 271 481ft 0kts
12-Sep-21 16:28 47.447989 -122.300638 271 481ft 0kts

Navigation Log

Ident Type
Flight plan parsing failed, navigation log unavailable